createdAt,value
2023-05-23T00:04:47.722Z,100.00
2023-05-23T00:14:49.593Z,100.00
2023-05-23T00:24:52.875Z,100.00
2023-05-23T00:34:56.061Z,100.00
2023-05-23T00:44:57.752Z,100.00
2023-05-23T00:55:00.303Z,100.00
2023-05-23T01:05:04.067Z,100.00
2023-05-23T01:15:17.619Z,100.00
2023-05-23T01:25:59.542Z,100.00
2023-05-23T01:36:05.582Z,100.00
2023-05-23T01:46:08.742Z,100.00
2023-05-23T01:56:10.997Z,100.00
2023-05-23T02:06:12.720Z,100.00
2023-05-23T02:16:14.346Z,100.00
2023-05-23T02:26:16.436Z,100.00
2023-05-23T02:36:18.135Z,100.00
2023-05-23T02:46:19.870Z,100.00
2023-05-23T02:56:22.408Z,100.00
2023-05-23T03:06:24.185Z,100.00
2023-05-23T03:16:26.028Z,100.00
2023-05-23T03:26:27.818Z,100.00
2023-05-23T03:36:29.588Z,100.00
2023-05-23T03:46:31.663Z,100.00
2023-05-23T03:56:33.573Z,100.00
2023-05-23T04:06:35.450Z,100.00
2023-05-23T04:16:38.716Z,100.00
2023-05-23T04:26:40.618Z,100.00
2023-05-23T04:36:50.392Z,100.00
2023-05-23T04:46:52.122Z,100.00
2023-05-23T04:56:53.785Z,100.00
2023-05-23T05:06:55.914Z,100.00
2023-05-23T05:16:57.942Z,100.00
2023-05-23T05:27:01.020Z,100.00
2023-05-23T05:37:06.177Z,100.00
2023-05-23T05:47:07.887Z,100.00
2023-05-23T05:57:09.650Z,100.00
2023-05-23T06:07:11.840Z,100.00
2023-05-23T06:17:15.072Z,100.00
2023-05-23T06:27:18.009Z,100.00
2023-05-23T06:37:19.700Z,100.00
2023-05-23T06:47:21.589Z,100.00
2023-05-23T06:57:23.251Z,100.00
2023-05-23T07:07:25.960Z,91.89
2023-05-23T07:17:30.155Z,92.58
2023-05-23T07:27:31.833Z,83.80
2023-05-23T07:37:34.867Z,87.29
2023-05-23T07:47:37.564Z,75.95
2023-05-23T07:57:39.706Z,66.91
2023-05-23T08:07:41.398Z,63.80
2023-05-23T08:17:44.393Z,62.70
2023-05-23T08:27:46.150Z,58.36
2023-05-23T08:37:48.600Z,57.84
2023-05-23T08:47:52.826Z,57.61
2023-05-23T08:57:56.476Z,53.84
2023-05-23T09:07:58.784Z,51.14
2023-05-23T09:18:04.390Z,51.48
2023-05-23T09:28:06.495Z,41.09
2023-05-23T09:38:08.347Z,35.96
2023-05-23T09:48:14.183Z,36.05
2023-05-23T09:58:18.834Z,31.15
2023-05-23T10:08:31.209Z,30.77
2023-05-23T10:18:39.980Z,30.42
2023-05-23T10:28:42.234Z,31.95
2023-05-23T10:38:58.754Z,28.47
2023-05-23T10:49:01.611Z,35.61
2023-05-23T10:59:06.445Z,30.93
2023-05-23T11:09:12.972Z,28.01
2023-05-23T11:19:30.935Z,24.84
2023-05-23T11:29:32.938Z,26.53
2023-05-23T11:39:34.936Z,24.67
2023-05-23T11:49:40.426Z,25.30
2023-05-23T11:59:45.117Z,26.28
2023-05-23T12:09:47.493Z,21.13
2023-05-23T12:19:49.615Z,26.60
2023-05-23T12:29:52.336Z,26.79
2023-05-23T12:39:53.987Z,25.40
2023-05-23T12:49:55.807Z,25.92
2023-05-23T12:59:57.796Z,21.78
2023-05-23T13:10:02.473Z,20.44
2023-05-23T13:20:05.460Z,20.76
2023-05-23T13:30:10.036Z,19.98
2023-05-23T13:40:20.526Z,19.42
2023-05-23T13:50:22.364Z,20.85
2023-05-23T14:00:27.531Z,24.78
2023-05-23T14:10:29.638Z,22.91
2023-05-23T14:20:32.094Z,24.58
2023-05-23T14:30:33.684Z,28.45
2023-05-23T14:40:35.375Z,22.39
2023-05-23T14:50:39.624Z,23.46
2023-05-23T15:00:41.569Z,21.24
2023-05-23T15:10:45.218Z,22.79
2023-05-23T15:20:48.134Z,24.48
2023-05-23T15:30:49.767Z,31.54
2023-05-23T15:40:54.912Z,37.66
2023-05-23T15:50:57.212Z,37.50
2023-05-23T16:01:00.509Z,38.65
2023-05-23T16:11:03.285Z,42.32
2023-05-23T16:21:05.194Z,43.65
2023-05-23T16:31:10.399Z,44.90
2023-05-23T16:41:17.423Z,47.55
2023-05-23T16:51:19.316Z,50.33
2023-05-23T17:01:21.707Z,54.52
2023-05-23T17:11:23.881Z,56.95
2023-05-23T17:21:25.954Z,61.22
2023-05-23T17:31:30.428Z,70.41
2023-05-23T17:41:32.456Z,86.42
2023-05-23T17:51:34.085Z,96.91
2023-05-23T18:01:35.709Z,100.00
2023-05-23T18:11:38.334Z,100.00
2023-05-23T18:21:40.097Z,100.00
2023-05-23T18:31:42.183Z,100.00
2023-05-23T18:41:46.771Z,100.00
2023-05-23T18:51:48.593Z,100.00
2023-05-23T19:01:51.763Z,100.00
2023-05-23T19:11:53.642Z,100.00
2023-05-23T19:21:55.860Z,100.00
2023-05-23T19:32:06.153Z,100.00
2023-05-23T19:42:08.154Z,100.00
2023-05-23T19:52:09.887Z,100.00
2023-05-23T20:02:21.008Z,100.00
2023-05-23T20:12:23.561Z,100.00
2023-05-23T20:22:26.882Z,100.00
2023-05-23T20:32:28.737Z,100.00
2023-05-23T20:42:32.802Z,100.00
2023-05-23T20:52:37.147Z,100.00
2023-05-23T21:02:43.501Z,100.00
2023-05-23T21:12:50.236Z,100.00
2023-05-23T21:22:52.102Z,100.00
2023-05-23T21:32:53.877Z,100.00
2023-05-23T21:42:55.590Z,100.00
2023-05-23T21:52:58.249Z,100.00
2023-05-23T22:03:00.230Z,100.00
2023-05-23T22:13:03.493Z,100.00
2023-05-23T22:23:06.270Z,100.00
2023-05-23T22:33:13.288Z,100.00
2023-05-23T22:43:15.080Z,100.00
2023-05-23T22:53:16.869Z,100.00
2023-05-23T23:03:18.745Z,100.00
2023-05-23T23:13:20.692Z,100.00
2023-05-23T23:23:22.621Z,100.00
2023-05-23T23:33:24.287Z,100.00
2023-05-23T23:43:25.998Z,100.00
2023-05-23T23:53:27.965Z,100.00
